sensor_id;sensor_type;location;lat;lon;timestamp;P1;durP1;ratioP1;P2;durP2;ratioP2
20375;SDS011;10347;51.828;6.466;2023-07-13T00:01:47;5.95;;;1.50;;
20375;SDS011;10347;51.828;6.466;2023-07-13T00:04:15;3.40;;;1.60;;
20375;SDS011;10347;51.828;6.466;2023-07-13T00:06:42;5.65;;;2.20;;
20375;SDS011;10347;51.828;6.466;2023-07-13T00:09:10;3.20;;;1.60;;
20375;SDS011;10347;51.828;6.466;2023-07-13T00:11:37;2.47;;;1.50;;
20375;SDS011;10347;51.828;6.466;2023-07-13T00:14:03;4.55;;;1.60;;
20375;SDS011;10347;51.828;6.466;2023-07-13T00:16:28;4.68;;;1.80;;
20375;SDS011;10347;51.828;6.466;2023-07-13T00:18:54;6.03;;;1.55;;
20375;SDS011;10347;51.828;6.466;2023-07-13T00:21:20;4.60;;;1.73;;
20375;SDS011;10347;51.828;6.466;2023-07-13T00:23:45;3.65;;;1.70;;
20375;SDS011;10347;51.828;6.466;2023-07-13T00:26:11;5.68;;;1.80;;
20375;SDS011;10347;51.828;6.466;2023-07-13T00:28:37;7.20;;;2.17;;
20375;SDS011;10347;51.828;6.466;2023-07-13T00:31:04;3.65;;;1.55;;
20375;SDS011;10347;51.828;6.466;2023-07-13T00:33:30;4.40;;;1.85;;
20375;SDS011;10347;51.828;6.466;2023-07-13T00:35:56;3.17;;;1.52;;
20375;SDS011;10347;51.828;6.466;2023-07-13T00:38:22;5.05;;;1.60;;
20375;SDS011;10347;51.828;6.466;2023-07-13T00:40:49;4.80;;;1.38;;
20375;SDS011;10347;51.828;6.466;2023-07-13T00:43:16;2.28;;;1.20;;
20375;SDS011;10347;51.828;6.466;2023-07-13T00:48:13;3.63;;;1.40;;
20375;SDS011;10347;51.828;6.466;2023-07-13T00:50:48;5.03;;;1.70;;
20375;SDS011;10347;51.828;6.466;2023-07-13T00:53:18;2.90;;;1.73;;
20375;SDS011;10347;51.828;6.466;2023-07-13T00:55:45;2.30;;;1.15;;
20375;SDS011;10347;51.828;6.466;2023-07-13T00:58:12;4.78;;;1.77;;
20375;SDS011;10347;51.828;6.466;2023-07-13T01:00:38;2.65;;;1.77;;
20375;SDS011;10347;51.828;6.466;2023-07-13T01:03:05;5.55;;;1.30;;
20375;SDS011;10347;51.828;6.466;2023-07-13T01:05:32;2.08;;;1.30;;
20375;SDS011;10347;51.828;6.466;2023-07-13T01:07:59;1.73;;;1.33;;
20375;SDS011;10347;51.828;6.466;2023-07-13T01:10:26;4.60;;;1.50;;
20375;SDS011;10347;51.828;6.466;2023-07-13T01:12:52;4.53;;;1.50;;
20375;SDS011;10347;51.828;6.466;2023-07-13T01:15:38;5.07;;;1.70;;
20375;SDS011;10347;51.828;6.466;2023-07-13T01:18:15;5.78;;;1.92;;
20375;SDS011;10347;51.828;6.466;2023-07-13T01:21:03;5.30;;;1.77;;
20375;SDS011;10347;51.828;6.466;2023-07-13T01:23:29;4.55;;;1.80;;
20375;SDS011;10347;51.828;6.466;2023-07-13T01:25:57;3.22;;;1.50;;
20375;SDS011;10347;51.828;6.466;2023-07-13T01:28:24;3.38;;;1.48;;
20375;SDS011;10347;51.828;6.466;2023-07-13T01:30:54;4.20;;;1.92;;
20375;SDS011;10347;51.828;6.466;2023-07-13T01:33:22;6.63;;;1.75;;
20375;SDS011;10347;51.828;6.466;2023-07-13T01:35:49;6.18;;;1.90;;
20375;SDS011;10347;51.828;6.466;2023-07-13T01:38:15;1.75;;;1.15;;
20375;SDS011;10347;51.828;6.466;2023-07-13T01:40:43;7.57;;;1.73;;
20375;SDS011;10347;51.828;6.466;2023-07-13T01:43:08;3.80;;;1.55;;
20375;SDS011;10347;51.828;6.466;2023-07-13T01:45:34;4.22;;;1.80;;
20375;SDS011;10347;51.828;6.466;2023-07-13T01:48:00;5.03;;;1.70;;
20375;SDS011;10347;51.828;6.466;2023-07-13T01:50:26;5.32;;;1.92;;
20375;SDS011;10347;51.828;6.466;2023-07-13T01:52:52;3.50;;;1.30;;
20375;SDS011;10347;51.828;6.466;2023-07-13T01:55:18;2.47;;;1.60;;
20375;SDS011;10347;51.828;6.466;2023-07-13T01:57:45;4.88;;;1.90;;
20375;SDS011;10347;51.828;6.466;2023-07-13T02:00:12;5.15;;;1.67;;
20375;SDS011;10347;51.828;6.466;2023-07-13T02:02:38;1.65;;;1.50;;
20375;SDS011;10347;51.828;6.466;2023-07-13T02:05:04;4.15;;;1.73;;
20375;SDS011;10347;51.828;6.466;2023-07-13T02:07:30;4.45;;;1.83;;
20375;SDS011;10347;51.828;6.466;2023-07-13T02:09:56;4.80;;;1.85;;
20375;SDS011;10347;51.828;6.466;2023-07-13T02:12:21;1.77;;;1.40;;
20375;SDS011;10347;51.828;6.466;2023-07-13T02:14:47;2.85;;;1.48;;
20375;SDS011;10347;51.828;6.466;2023-07-13T02:17:13;1.92;;;1.50;;
20375;SDS011;10347;51.828;6.466;2023-07-13T02:19:39;2.40;;;1.60;;
20375;SDS011;10347;51.828;6.466;2023-07-13T02:22:05;5.38;;;1.88;;
20375;SDS011;10347;51.828;6.466;2023-07-13T02:24:31;2.53;;;1.40;;
20375;SDS011;10347;51.828;6.466;2023-07-13T02:26:57;2.95;;;1.70;;
20375;SDS011;10347;51.828;6.466;2023-07-13T02:29:22;4.00;;;1.85;;
20375;SDS011;10347;51.828;6.466;2023-07-13T02:31:48;3.13;;;1.63;;
20375;SDS011;10347;51.828;6.466;2023-07-13T02:34:13;3.88;;;1.60;;
20375;SDS011;10347;51.828;6.466;2023-07-13T02:36:39;3.78;;;1.50;;
20375;SDS011;10347;51.828;6.466;2023-07-13T02:39:05;3.60;;;1.60;;
20375;SDS011;10347;51.828;6.466;2023-07-13T02:41:31;3.60;;;1.48;;
20375;SDS011;10347;51.828;6.466;2023-07-13T02:43:59;4.63;;;1.50;;
20375;SDS011;10347;51.828;6.466;2023-07-13T02:46:35;2.78;;;1.52;;
20375;SDS011;10347;51.828;6.466;2023-07-13T02:49:02;2.63;;;1.33;;
20375;SDS011;10347;51.828;6.466;2023-07-13T02:51:28;4.50;;;1.67;;
20375;SDS011;10347;51.828;6.466;2023-07-13T02:53:54;4.07;;;1.80;;
20375;SDS011;10347;51.828;6.466;2023-07-13T02:56:21;5.85;;;2.00;;
20375;SDS011;10347;51.828;6.466;2023-07-13T02:58:48;3.25;;;1.77;;
20375;SDS011;10347;51.828;6.466;2023-07-13T03:01:14;3.17;;;1.60;;
20375;SDS011;10347;51.828;6.466;2023-07-13T03:03:43;6.93;;;2.08;;
20375;SDS011;10347;51.828;6.466;2023-07-13T03:06:10;4.80;;;1.85;;
20375;SDS011;10347;51.828;6.466;2023-07-13T03:08:36;3.70;;;1.60;;
20375;SDS011;10347;51.828;6.466;2023-07-13T03:11:06;3.60;;;1.80;;
20375;SDS011;10347;51.828;6.466;2023-07-13T03:13:36;4.13;;;1.98;;
20375;SDS011;10347;51.828;6.466;2023-07-13T03:16:03;5.53;;;2.00;;
20375;SDS011;10347;51.828;6.466;2023-07-13T03:18:29;5.03;;;1.80;;
20375;SDS011;10347;51.828;6.466;2023-07-13T03:20:55;3.00;;;1.60;;
20375;SDS011;10347;51.828;6.466;2023-07-13T03:23:21;6.35;;;1.92;;
20375;SDS011;10347;51.828;6.466;2023-07-13T03:25:47;4.28;;;1.73;;
20375;SDS011;10347;51.828;6.466;2023-07-13T03:28:13;3.75;;;1.80;;
20375;SDS011;10347;51.828;6.466;2023-07-13T03:30:40;3.83;;;1.92;;
20375;SDS011;10347;51.828;6.466;2023-07-13T03:33:06;5.30;;;1.92;;
20375;SDS011;10347;51.828;6.466;2023-07-13T03:35:32;6.32;;;1.92;;
20375;SDS011;10347;51.828;6.466;2023-07-13T03:37:59;5.57;;;1.80;;
20375;SDS011;10347;51.828;6.466;2023-07-13T03:40:25;5.13;;;1.52;;
20375;SDS011;10347;51.828;6.466;2023-07-13T03:42:51;5.63;;;1.60;;
20375;SDS011;10347;51.828;6.466;2023-07-13T03:45:17;2.28;;;1.60;;
20375;SDS011;10347;51.828;6.466;2023-07-13T03:47:43;4.18;;;1.90;;
20375;SDS011;10347;51.828;6.466;2023-07-13T03:50:09;2.72;;;1.90;;
20375;SDS011;10347;51.828;6.466;2023-07-13T03:52:35;4.80;;;1.77;;
20375;SDS011;10347;51.828;6.466;2023-07-13T03:55:01;5.82;;;1.80;;
20375;SDS011;10347;51.828;6.466;2023-07-13T03:57:26;3.90;;;1.75;;
20375;SDS011;10347;51.828;6.466;2023-07-13T03:59:52;3.75;;;1.67;;
20375;SDS011;10347;51.828;6.466;2023-07-13T04:02:17;4.35;;;1.85;;
20375;SDS011;10347;51.828;6.466;2023-07-13T04:04:43;7.13;;;2.00;;
20375;SDS011;10347;51.828;6.466;2023-07-13T04:07:09;3.10;;;1.77;;
20375;SDS011;10347;51.828;6.466;2023-07-13T04:09:35;5.25;;;1.70;;
20375;SDS011;10347;51.828;6.466;2023-07-13T04:12:01;4.20;;;1.75;;
20375;SDS011;10347;51.828;6.466;2023-07-13T04:14:27;3.45;;;1.70;;
20375;SDS011;10347;51.828;6.466;2023-07-13T04:16:52;6.13;;;2.10;;
20375;SDS011;10347;51.828;6.466;2023-07-13T04:19:19;5.00;;;2.17;;
20375;SDS011;10347;51.828;6.466;2023-07-13T04:21:45;7.97;;;1.88;;
20375;SDS011;10347;51.828;6.466;2023-07-13T04:24:11;4.82;;;1.83;;
20375;SDS011;10347;51.828;6.466;2023-07-13T04:26:37;5.25;;;2.10;;
20375;SDS011;10347;51.828;6.466;2023-07-13T04:29:04;3.92;;;1.77;;
20375;SDS011;10347;51.828;6.466;2023-07-13T04:31:30;3.90;;;1.85;;
20375;SDS011;10347;51.828;6.466;2023-07-13T04:33:56;6.65;;;1.83;;
20375;SDS011;10347;51.828;6.466;2023-07-13T04:36:22;6.35;;;2.13;;
20375;SDS011;10347;51.828;6.466;2023-07-13T04:38:48;5.35;;;2.08;;
20375;SDS011;10347;51.828;6.466;2023-07-13T04:41:14;4.53;;;1.70;;
20375;SDS011;10347;51.828;6.466;2023-07-13T04:43:40;4.55;;;1.80;;
20375;SDS011;10347;51.828;6.466;2023-07-13T04:46:07;4.95;;;2.45;;
20375;SDS011;10347;51.828;6.466;2023-07-13T04:48:36;5.93;;;2.13;;
20375;SDS011;10347;51.828;6.466;2023-07-13T04:51:02;4.45;;;1.88;;
20375;SDS011;10347;51.828;6.466;2023-07-13T04:53:29;7.95;;;2.15;;
20375;SDS011;10347;51.828;6.466;2023-07-13T04:55:55;8.52;;;2.60;;
20375;SDS011;10347;51.828;6.466;2023-07-13T04:58:21;6.72;;;2.08;;
20375;SDS011;10347;51.828;6.466;2023-07-13T05:00:47;6.75;;;2.05;;
20375;SDS011;10347;51.828;6.466;2023-07-13T05:03:13;5.47;;;2.60;;
20375;SDS011;10347;51.828;6.466;2023-07-13T05:05:38;4.45;;;2.20;;
20375;SDS011;10347;51.828;6.466;2023-07-13T05:08:04;6.70;;;1.98;;
20375;SDS011;10347;51.828;6.466;2023-07-13T05:10:30;6.68;;;2.30;;
20375;SDS011;10347;51.828;6.466;2023-07-13T05:12:55;8.10;;;2.30;;
20375;SDS011;10347;51.828;6.466;2023-07-13T05:15:21;6.10;;;2.85;;
20375;SDS011;10347;51.828;6.466;2023-07-13T05:17:48;4.05;;;2.10;;
20375;SDS011;10347;51.828;6.466;2023-07-13T05:20:14;5.95;;;2.60;;
20375;SDS011;10347;51.828;6.466;2023-07-13T05:22:40;5.45;;;2.40;;
20375;SDS011;10347;51.828;6.466;2023-07-13T05:25:06;10.35;;;2.50;;
20375;SDS011;10347;51.828;6.466;2023-07-13T05:27:33;7.43;;;2.67;;
20375;SDS011;10347;51.828;6.466;2023-07-13T05:29:59;7.35;;;2.92;;
20375;SDS011;10347;51.828;6.466;2023-07-13T05:32:25;4.75;;;2.72;;
20375;SDS011;10347;51.828;6.466;2023-07-13T05:34:51;7.90;;;2.67;;
20375;SDS011;10347;51.828;6.466;2023-07-13T05:37:16;8.50;;;2.58;;
20375;SDS011;10347;51.828;6.466;2023-07-13T05:39:42;4.60;;;2.45;;
20375;SDS011;10347;51.828;6.466;2023-07-13T05:42:07;9.40;;;2.97;;
20375;SDS011;10347;51.828;6.466;2023-07-13T05:44:33;11.35;;;3.00;;
20375;SDS011;10347;51.828;6.466;2023-07-13T05:46:58;7.47;;;2.80;;
20375;SDS011;10347;51.828;6.466;2023-07-13T05:49:24;9.48;;;3.58;;
20375;SDS011;10347;51.828;6.466;2023-07-13T05:51:49;7.63;;;2.85;;
20375;SDS011;10347;51.828;6.466;2023-07-13T05:54:15;4.85;;;2.85;;
20375;SDS011;10347;51.828;6.466;2023-07-13T05:56:40;9.82;;;3.92;;
20375;SDS011;10347;51.828;6.466;2023-07-13T05:59:06;8.25;;;3.97;;
20375;SDS011;10347;51.828;6.466;2023-07-13T06:01:31;10.18;;;3.90;;
20375;SDS011;10347;51.828;6.466;2023-07-13T06:03:57;12.43;;;4.43;;
20375;SDS011;10347;51.828;6.466;2023-07-13T06:06:23;11.80;;;4.25;;
20375;SDS011;10347;51.828;6.466;2023-07-13T06:08:48;8.23;;;4.00;;
20375;SDS011;10347;51.828;6.466;2023-07-13T06:11:22;7.93;;;3.88;;
20375;SDS011;10347;51.828;6.466;2023-07-13T06:13:49;11.55;;;4.88;;
20375;SDS011;10347;51.828;6.466;2023-07-13T06:16:15;10.73;;;4.25;;
20375;SDS011;10347;51.828;6.466;2023-07-13T06:18:41;14.25;;;4.78;;
20375;SDS011;10347;51.828;6.466;2023-07-13T06:21:10;11.02;;;4.50;;
20375;SDS011;10347;51.828;6.466;2023-07-13T06:23:41;11.95;;;4.72;;
20375;SDS011;10347;51.828;6.466;2023-07-13T06:26:07;12.05;;;4.63;;
20375;SDS011;10347;51.828;6.466;2023-07-13T06:28:34;11.80;;;5.05;;
20375;SDS011;10347;51.828;6.466;2023-07-13T06:31:01;12.02;;;4.68;;
20375;SDS011;10347;51.828;6.466;2023-07-13T06:33:26;12.77;;;5.07;;
20375;SDS011;10347;51.828;6.466;2023-07-13T06:35:52;14.02;;;5.43;;
20375;SDS011;10347;51.828;6.466;2023-07-13T06:38:19;15.40;;;5.30;;
20375;SDS011;10347;51.828;6.466;2023-07-13T06:40:46;12.93;;;4.75;;
20375;SDS011;10347;51.828;6.466;2023-07-13T06:43:11;10.55;;;4.85;;
20375;SDS011;10347;51.828;6.466;2023-07-13T06:45:41;15.30;;;6.50;;
20375;SDS011;10347;51.828;6.466;2023-07-13T06:48:11;15.57;;;6.38;;
20375;SDS011;10347;51.828;6.466;2023-07-13T06:50:36;13.45;;;6.18;;
20375;SDS011;10347;51.828;6.466;2023-07-13T06:53:02;14.88;;;6.43;;
20375;SDS011;10347;51.828;6.466;2023-07-13T06:55:28;14.90;;;6.60;;
20375;SDS011;10347;51.828;6.466;2023-07-13T06:57:53;16.98;;;6.75;;
20375;SDS011;10347;51.828;6.466;2023-07-13T07:00:19;15.38;;;6.75;;
20375;SDS011;10347;51.828;6.466;2023-07-13T07:02:44;18.25;;;7.00;;
20375;SDS011;10347;51.828;6.466;2023-07-13T07:05:10;11.68;;;6.70;;
20375;SDS011;10347;51.828;6.466;2023-07-13T07:07:35;17.95;;;6.90;;
20375;SDS011;10347;51.828;6.466;2023-07-13T07:10:01;14.82;;;7.32;;
20375;SDS011;10347;51.828;6.466;2023-07-13T07:12:28;18.55;;;6.65;;
20375;SDS011;10347;51.828;6.466;2023-07-13T07:14:53;19.35;;;8.60;;
20375;SDS011;10347;51.828;6.466;2023-07-13T07:17:19;17.27;;;7.25;;
20375;SDS011;10347;51.828;6.466;2023-07-13T07:19:44;15.70;;;6.88;;
20375;SDS011;10347;51.828;6.466;2023-07-13T07:22:10;18.02;;;7.05;;
20375;SDS011;10347;51.828;6.466;2023-07-13T07:24:38;20.98;;;8.77;;
20375;SDS011;10347;51.828;6.466;2023-07-13T07:27:04;12.60;;;6.10;;
20375;SDS011;10347;51.828;6.466;2023-07-13T07:29:29;17.60;;;6.82;;
20375;SDS011;10347;51.828;6.466;2023-07-13T07:31:55;20.00;;;8.70;;
20375;SDS011;10347;51.828;6.466;2023-07-13T07:34:20;15.00;;;7.22;;
20375;SDS011;10347;51.828;6.466;2023-07-13T07:36:46;17.52;;;6.90;;
20375;SDS011;10347;51.828;6.466;2023-07-13T07:39:11;19.65;;;7.53;;
20375;SDS011;10347;51.828;6.466;2023-07-13T07:41:37;13.25;;;6.22;;
20375;SDS011;10347;51.828;6.466;2023-07-13T07:44:03;14.90;;;6.78;;
20375;SDS011;10347;51.828;6.466;2023-07-13T07:46:29;15.23;;;7.57;;
20375;SDS011;10347;51.828;6.466;2023-07-13T07:48:55;11.80;;;6.03;;
20375;SDS011;10347;51.828;6.466;2023-07-13T07:51:21;16.08;;;6.55;;
20375;SDS011;10347;51.828;6.466;2023-07-13T07:53:47;19.55;;;7.18;;
20375;SDS011;10347;51.828;6.466;2023-07-13T07:56:12;16.15;;;6.60;;
20375;SDS011;10347;51.828;6.466;2023-07-13T07:58:38;11.40;;;6.15;;
20375;SDS011;10347;51.828;6.466;2023-07-13T08:01:04;16.30;;;6.50;;
20375;SDS011;10347;51.828;6.466;2023-07-13T08:03:30;13.32;;;6.38;;
20375;SDS011;10347;51.828;6.466;2023-07-13T08:05:56;12.73;;;6.18;;
20375;SDS011;10347;51.828;6.466;2023-07-13T08:08:22;14.45;;;6.68;;
20375;SDS011;10347;51.828;6.466;2023-07-13T08:10:47;12.82;;;5.90;;
20375;SDS011;10347;51.828;6.466;2023-07-13T08:13:13;10.93;;;5.93;;
20375;SDS011;10347;51.828;6.466;2023-07-13T08:15:38;11.02;;;5.20;;
20375;SDS011;10347;51.828;6.466;2023-07-13T08:18:05;11.10;;;5.22;;
20375;SDS011;10347;51.828;6.466;2023-07-13T08:20:31;14.75;;;5.38;;
20375;SDS011;10347;51.828;6.466;2023-07-13T08:22:56;14.20;;;5.38;;
20375;SDS011;10347;51.828;6.466;2023-07-13T08:25:22;15.60;;;5.05;;
20375;SDS011;10347;51.828;6.466;2023-07-13T08:27:48;14.80;;;5.32;;
20375;SDS011;10347;51.828;6.466;2023-07-13T08:30:13;9.15;;;4.50;;
20375;SDS011;10347;51.828;6.466;2023-07-13T08:32:39;9.88;;;4.43;;
20375;SDS011;10347;51.828;6.466;2023-07-13T08:35:04;9.38;;;4.50;;
20375;SDS011;10347;51.828;6.466;2023-07-13T08:37:30;10.25;;;4.90;;
20375;SDS011;10347;51.828;6.466;2023-07-13T08:39:56;12.20;;;4.80;;
20375;SDS011;10347;51.828;6.466;2023-07-13T08:47:47;13.73;;;5.20;;
20375;SDS011;10347;51.828;6.466;2023-07-13T08:50:19;11.77;;;4.43;;
20375;SDS011;10347;51.828;6.466;2023-07-13T08:52:49;11.63;;;5.30;;
20375;SDS011;10347;51.828;6.466;2023-07-13T08:55:20;8.32;;;4.60;;
20375;SDS011;10347;51.828;6.466;2023-07-13T08:57:50;11.85;;;5.13;;
20375;SDS011;10347;51.828;6.466;2023-07-13T09:00:21;11.35;;;5.00;;
20375;SDS011;10347;51.828;6.466;2023-07-13T09:02:54;14.35;;;5.45;;
20375;SDS011;10347;51.828;6.466;2023-07-13T09:05:26;11.55;;;4.90;;
20375;SDS011;10347;51.828;6.466;2023-07-13T09:10:44;14.35;;;5.22;;
20375;SDS011;10347;51.828;6.466;2023-07-13T09:15:52;11.73;;;4.80;;
20375;SDS011;10347;51.828;6.466;2023-07-13T09:18:32;10.82;;;4.70;;
20375;SDS011;10347;51.828;6.466;2023-07-13T09:21:15;9.85;;;4.50;;
20375;SDS011;10347;51.828;6.466;2023-07-13T09:23:45;8.73;;;4.28;;
20375;SDS011;10347;51.828;6.466;2023-07-13T09:26:15;10.30;;;4.47;;
20375;SDS011;10347;51.828;6.466;2023-07-13T09:28:51;11.48;;;4.80;;
20375;SDS011;10347;51.828;6.466;2023-07-13T09:31:49;11.55;;;4.38;;
20375;SDS011;10347;51.828;6.466;2023-07-13T09:34:18;8.65;;;4.20;;
20375;SDS011;10347;51.828;6.466;2023-07-13T09:36:44;10.98;;;4.40;;
20375;SDS011;10347;51.828;6.466;2023-07-13T09:39:27;12.95;;;4.85;;
20375;SDS011;10347;51.828;6.466;2023-07-13T09:44:35;10.27;;;5.30;;
20375;SDS011;10347;51.828;6.466;2023-07-13T09:47:25;11.43;;;5.10;;
20375;SDS011;10347;51.828;6.466;2023-07-13T09:49:56;11.50;;;5.45;;
20375;SDS011;10347;51.828;6.466;2023-07-13T09:52:23;15.00;;;5.40;;
20375;SDS011;10347;51.828;6.466;2023-07-13T09:54:52;14.63;;;4.63;;
20375;SDS011;10347;51.828;6.466;2023-07-13T09:57:23;10.23;;;4.55;;
20375;SDS011;10347;51.828;6.466;2023-07-13T09:59:52;12.15;;;4.55;;
20375;SDS011;10347;51.828;6.466;2023-07-13T10:02:31;10.25;;;4.20;;
20375;SDS011;10347;51.828;6.466;2023-07-13T10:07:25;8.00;;;3.88;;
20375;SDS011;10347;51.828;6.466;2023-07-13T10:09:53;11.27;;;4.00;;
20375;SDS011;10347;51.828;6.466;2023-07-13T10:12:19;8.70;;;3.95;;
20375;SDS011;10347;51.828;6.466;2023-07-13T10:14:45;8.55;;;3.88;;
20375;SDS011;10347;51.828;6.466;2023-07-13T10:17:13;9.30;;;3.83;;
20375;SDS011;10347;51.828;6.466;2023-07-13T10:19:39;8.00;;;3.80;;
20375;SDS011;10347;51.828;6.466;2023-07-13T10:24:37;9.13;;;3.75;;
20375;SDS011;10347;51.828;6.466;2023-07-13T10:29:36;7.95;;;3.20;;
20375;SDS011;10347;51.828;6.466;2023-07-13T10:32:10;11.32;;;3.13;;
20375;SDS011;10347;51.828;6.466;2023-07-13T10:34:37;6.15;;;3.33;;
20375;SDS011;10347;51.828;6.466;2023-07-13T10:37:05;6.53;;;3.58;;
20375;SDS011;10347;51.828;6.466;2023-07-13T10:39:37;6.97;;;2.88;;
20375;SDS011;10347;51.828;6.466;2023-07-13T10:42:04;6.90;;;3.47;;
20375;SDS011;10347;51.828;6.466;2023-07-13T10:44:34;5.57;;;3.10;;
20375;SDS011;10347;51.828;6.466;2023-07-13T10:47:01;7.68;;;3.15;;
20375;SDS011;10347;51.828;6.466;2023-07-13T10:49:31;7.10;;;2.88;;
20375;SDS011;10347;51.828;6.466;2023-07-13T10:51:58;9.68;;;3.00;;
20375;SDS011;10347;51.828;6.466;2023-07-13T10:54:28;5.47;;;2.70;;
20375;SDS011;10347;51.828;6.466;2023-07-13T10:57:14;6.72;;;2.72;;
20375;SDS011;10347;51.828;6.466;2023-07-13T10:59:49;4.45;;;3.38;;
20375;SDS011;10347;51.828;6.466;2023-07-13T11:02:40;6.68;;;3.10;;
20375;SDS011;10347;51.828;6.466;2023-07-13T11:05:20;4.88;;;3.35;;
20375;SDS011;10347;51.828;6.466;2023-07-13T11:07:55;9.35;;;3.20;;
20375;SDS011;10347;51.828;6.466;2023-07-13T11:10:46;4.35;;;2.67;;
20375;SDS011;10347;51.828;6.466;2023-07-13T11:16:13;6.82;;;3.08;;
20375;SDS011;10347;51.828;6.466;2023-07-13T11:18:45;5.25;;;2.55;;
20375;SDS011;10347;51.828;6.466;2023-07-13T11:21:16;3.78;;;2.60;;
20375;SDS011;10347;51.828;6.466;2023-07-13T11:24:20;5.20;;;2.63;;
20375;SDS011;10347;51.828;6.466;2023-07-13T11:26:43;6.10;;;2.90;;
20375;SDS011;10347;51.828;6.466;2023-07-13T11:31:59;5.75;;;4.15;;
20375;SDS011;10347;51.828;6.466;2023-07-13T11:34:36;8.18;;;4.22;;
20375;SDS011;10347;51.828;6.466;2023-07-13T11:37:07;10.77;;;5.25;;
20375;SDS011;10347;51.828;6.466;2023-07-13T11:39:40;8.00;;;4.95;;
20375;SDS011;10347;51.828;6.466;2023-07-13T11:42:09;7.93;;;5.35;;
20375;SDS011;10347;51.828;6.466;2023-07-13T11:44:41;8.43;;;5.55;;
20375;SDS011;10347;51.828;6.466;2023-07-13T11:47:18;6.40;;;4.40;;
20375;SDS011;10347;51.828;6.466;2023-07-13T11:49:52;6.68;;;4.32;;
20375;SDS011;10347;51.828;6.466;2023-07-13T11:52:27;6.90;;;4.53;;
20375;SDS011;10347;51.828;6.466;2023-07-13T11:55:01;7.28;;;4.90;;
20375;SDS011;10347;51.828;6.466;2023-07-13T11:57:30;6.72;;;4.40;;
20375;SDS011;10347;51.828;6.466;2023-07-13T11:59:59;6.50;;;4.40;;
20375;SDS011;10347;51.828;6.466;2023-07-13T12:02:38;6.47;;;4.57;;
20375;SDS011;10347;51.828;6.466;2023-07-13T12:05:09;8.30;;;4.35;;
20375;SDS011;10347;51.828;6.466;2023-07-13T12:07:38;5.15;;;4.40;;
20375;SDS011;10347;51.828;6.466;2023-07-13T12:12:40;8.57;;;5.00;;
20375;SDS011;10347;51.828;6.466;2023-07-13T12:15:18;6.65;;;4.85;;
20375;SDS011;10347;51.828;6.466;2023-07-13T12:17:47;8.15;;;6.13;;
20375;SDS011;10347;51.828;6.466;2023-07-13T12:22:47;8.68;;;5.05;;
20375;SDS011;10347;51.828;6.466;2023-07-13T12:25:14;3.92;;;3.40;;
20375;SDS011;10347;51.828;6.466;2023-07-13T12:27:40;6.95;;;3.75;;
20375;SDS011;10347;51.828;6.466;2023-07-13T12:30:24;2.83;;;2.63;;
20375;SDS011;10347;51.828;6.466;2023-07-13T12:33:01;3.05;;;2.67;;
20375;SDS011;10347;51.828;6.466;2023-07-13T12:35:38;5.55;;;2.65;;
20375;SDS011;10347;51.828;6.466;2023-07-13T12:38:09;2.85;;;2.10;;
20375;SDS011;10347;51.828;6.466;2023-07-13T12:40:36;4.18;;;2.90;;
20375;SDS011;10347;51.828;6.466;2023-07-13T12:43:02;2.35;;;2.20;;
20375;SDS011;10347;51.828;6.466;2023-07-13T12:45:32;2.97;;;2.72;;
20375;SDS011;10347;51.828;6.466;2023-07-13T12:47:59;2.95;;;2.50;;
20375;SDS011;10347;51.828;6.466;2023-07-13T12:50:34;4.18;;;2.50;;
20375;SDS011;10347;51.828;6.466;2023-07-13T12:53:04;2.58;;;2.35;;
20375;SDS011;10347;51.828;6.466;2023-07-13T12:55:44;4.60;;;2.85;;
20375;SDS011;10347;51.828;6.466;2023-07-13T12:58:16;2.85;;;2.50;;
20375;SDS011;10347;51.828;6.466;2023-07-13T13:00:58;3.38;;;2.78;;
20375;SDS011;10347;51.828;6.466;2023-07-13T13:03:33;3.03;;;2.83;;
20375;SDS011;10347;51.828;6.466;2023-07-13T13:06:17;4.50;;;2.80;;
20375;SDS011;10347;51.828;6.466;2023-07-13T13:08:56;4.13;;;3.05;;
20375;SDS011;10347;51.828;6.466;2023-07-13T13:11:27;3.33;;;2.47;;
20375;SDS011;10347;51.828;6.466;2023-07-13T13:13:53;3.40;;;2.80;;
20375;SDS011;10347;51.828;6.466;2023-07-13T13:16:20;3.88;;;2.38;;
20375;SDS011;10347;51.828;6.466;2023-07-13T13:19:20;3.17;;;2.50;;
20375;SDS011;10347;51.828;6.466;2023-07-13T13:21:48;3.83;;;2.65;;
20375;SDS011;10347;51.828;6.466;2023-07-13T13:24:18;3.00;;;2.67;;
20375;SDS011;10347;51.828;6.466;2023-07-13T13:26:46;3.08;;;2.75;;
20375;SDS011;10347;51.828;6.466;2023-07-13T13:29:14;4.65;;;2.80;;
20375;SDS011;10347;51.828;6.466;2023-07-13T13:31:49;3.50;;;2.83;;
20375;SDS011;10347;51.828;6.466;2023-07-13T13:34:16;5.38;;;3.50;;
20375;SDS011;10347;51.828;6.466;2023-07-13T13:36:43;4.25;;;2.53;;
20375;SDS011;10347;51.828;6.466;2023-07-13T13:39:17;2.47;;;2.15;;
20375;SDS011;10347;51.828;6.466;2023-07-13T13:41:47;4.13;;;2.53;;
20375;SDS011;10347;51.828;6.466;2023-07-13T13:44:15;3.55;;;2.50;;
20375;SDS011;10347;51.828;6.466;2023-07-13T13:46:41;5.28;;;2.90;;
20375;SDS011;10347;51.828;6.466;2023-07-13T13:49:13;3.13;;;2.50;;
20375;SDS011;10347;51.828;6.466;2023-07-13T13:51:44;4.20;;;3.05;;
20375;SDS011;10347;51.828;6.466;2023-07-13T13:54:11;5.28;;;2.70;;
20375;SDS011;10347;51.828;6.466;2023-07-13T13:56:38;4.65;;;2.80;;
20375;SDS011;10347;51.828;6.466;2023-07-13T13:59:03;4.82;;;2.40;;
20375;SDS011;10347;51.828;6.466;2023-07-13T14:01:29;3.28;;;2.33;;
20375;SDS011;10347;51.828;6.466;2023-07-13T14:03:56;3.83;;;2.50;;
20375;SDS011;10347;51.828;6.466;2023-07-13T14:06:22;3.45;;;2.47;;
20375;SDS011;10347;51.828;6.466;2023-07-13T14:08:48;6.95;;;3.13;;
20375;SDS011;10347;51.828;6.466;2023-07-13T14:11:16;5.05;;;2.58;;
20375;SDS011;10347;51.828;6.466;2023-07-13T14:13:44;3.85;;;2.38;;
20375;SDS011;10347;51.828;6.466;2023-07-13T14:16:17;3.83;;;2.90;;
20375;SDS011;10347;51.828;6.466;2023-07-13T14:18:45;5.85;;;2.95;;
20375;SDS011;10347;51.828;6.466;2023-07-13T14:21:15;3.47;;;2.40;;
20375;SDS011;10347;51.828;6.466;2023-07-13T14:23:43;3.35;;;2.38;;
20375;SDS011;10347;51.828;6.466;2023-07-13T14:26:11;4.25;;;2.65;;
20375;SDS011;10347;51.828;6.466;2023-07-13T14:28:41;3.03;;;2.20;;
20375;SDS011;10347;51.828;6.466;2023-07-13T14:31:09;6.60;;;2.78;;
20375;SDS011;10347;51.828;6.466;2023-07-13T14:33:38;2.38;;;2.20;;
20375;SDS011;10347;51.828;6.466;2023-07-13T14:39:14;5.50;;;2.78;;
20375;SDS011;10347;51.828;6.466;2023-07-13T14:41:42;4.97;;;2.80;;
20375;SDS011;10347;51.828;6.466;2023-07-13T14:44:19;4.35;;;2.78;;
20375;SDS011;10347;51.828;6.466;2023-07-13T14:46:48;5.45;;;3.30;;
20375;SDS011;10347;51.828;6.466;2023-07-13T14:49:25;3.05;;;2.50;;
20375;SDS011;10347;51.828;6.466;2023-07-13T14:51:56;3.75;;;2.83;;
20375;SDS011;10347;51.828;6.466;2023-07-13T14:54:23;5.07;;;2.95;;
20375;SDS011;10347;51.828;6.466;2023-07-13T14:56:52;4.43;;;2.47;;
20375;SDS011;10347;51.828;6.466;2023-07-13T14:59:18;3.83;;;2.60;;
20375;SDS011;10347;51.828;6.466;2023-07-13T15:01:46;3.67;;;2.70;;
20375;SDS011;10347;51.828;6.466;2023-07-13T15:04:13;5.55;;;2.80;;
20375;SDS011;10347;51.828;6.466;2023-07-13T15:06:58;4.47;;;2.67;;
20375;SDS011;10347;51.828;6.466;2023-07-13T15:09:27;4.55;;;2.88;;
20375;SDS011;10347;51.828;6.466;2023-07-13T15:11:57;3.10;;;2.40;;
20375;SDS011;10347;51.828;6.466;2023-07-13T15:14:23;3.58;;;2.78;;
20375;SDS011;10347;51.828;6.466;2023-07-13T15:16:50;4.68;;;2.10;;
20375;SDS011;10347;51.828;6.466;2023-07-13T15:19:18;4.18;;;2.90;;
20375;SDS011;10347;51.828;6.466;2023-07-13T15:21:45;4.10;;;2.33;;
20375;SDS011;10347;51.828;6.466;2023-07-13T15:24:11;5.00;;;2.83;;
20375;SDS011;10347;51.828;6.466;2023-07-13T15:26:37;3.17;;;2.50;;
20375;SDS011;10347;51.828;6.466;2023-07-13T15:29:04;6.65;;;2.75;;
20375;SDS011;10347;51.828;6.466;2023-07-13T15:31:30;5.10;;;2.75;;